Time;durP1;ratioP1;P1;durP2;ratioP2;P2;SDS_P1;SDS_P2;PMS_P1;PMS_P2;Temp;Humidity;BMP_temperature;BMP_pressure;BME280_temperature;BME280_humidity;BME280_pressure;Samples;Min_cycle;Max_cycle;Signal;HPM_P1;HPM_P2
2022/12/29 00:01:27;;;;;;;1.98;1.58;;;;;;;;;;5027612;28;20663;-80
2022/12/29 00:03:52;;;;;;;1.90;1.65;;;;;;;;;;5026712;28;20178;-80
2022/12/29 00:06:18;;;;;;;2.60;1.60;;;;;;;;;;5029897;28;20206;-78
2022/12/29 00:08:43;;;;;;;1.83;1.70;;;;;;;;;;5034753;28;20202;-78
2022/12/29 00:11:09;;;;;;;2.00;1.60;;;;;;;;;;5030756;28;20181;-79
2022/12/29 00:16:18;;;;;;;1.73;1.60;;;;;;;;;;5042819;22;20287;-71
2022/12/29 00:18:43;;;;;;;2.57;1.53;;;;;;;;;;5029994;28;20182;-71
2022/12/29 00:35:08;;;;;;;2.00;1.65;;;;;;;;;;5030736;28;20180;-70
2022/12/29 00:45:46;;;;;;;1.73;1.63;;;;;;;;;;5027462;28;20247;-70
2022/12/29 00:48:11;;;;;;;1.95;1.50;;;;;;;;;;5034125;28;20586;-71
2022/12/29 00:50:36;;;;;;;5.07;1.50;;;;;;;;;;5034066;28;20182;-71
2022/12/29 00:53:01;;;;;;;4.00;1.58;;;;;;;;;;5031711;28;20182;-71
2022/12/29 00:55:27;;;;;;;2.33;1.15;;;;;;;;;;5029680;28;20281;-71
2022/12/29 00:57:52;;;;;;;2.17;1.10;;;;;;;;;;5030588;28;20175;-71
2022/12/29 01:00:17;;;;;;;2.10;1.30;;;;;;;;;;5032424;28;20586;-71
2022/12/29 01:02:42;;;;;;;2.53;1.10;;;;;;;;;;5030089;28;20267;-71
2022/12/29 01:05:08;;;;;;;1.98;1.30;;;;;;;;;;5034000;28;20552;-71
2022/12/29 01:07:33;;;;;;;1.83;1.25;;;;;;;;;;5033800;28;20214;-71
2022/12/29 01:10:10;;;;;;;3.40;1.30;;;;;;;;;;5032933;28;20653;-71
2022/12/29 01:12:41;;;;;;;3.03;1.25;;;;;;;;;;5031843;28;20790;-70
2022/12/29 01:15:07;;;;;;;1.38;1.27;;;;;;;;;;5034032;28;20265;-71
2022/12/29 01:17:33;;;;;;;3.75;1.30;;;;;;;;;;5033593;28;20222;-71
2022/12/29 01:19:58;;;;;;;2.43;2.20;;;;;;;;;;5033953;28;20177;-72
2022/12/29 01:22:23;;;;;;;2.78;1.50;;;;;;;;;;5031674;28;20269;-71
2022/12/29 01:24:49;;;;;;;1.23;1.13;;;;;;;;;;5033718;28;20171;-71
2022/12/29 01:27:14;;;;;;;2.65;1.60;;;;;;;;;;5033847;28;20561;-71
2022/12/29 01:29:39;;;;;;;2.03;1.50;;;;;;;;;;5038468;28;20170;-72
2022/12/29 01:32:04;;;;;;;3.20;1.77;;;;;;;;;;5030388;28;20182;-71
2022/12/29 01:34:29;;;;;;;1.87;1.67;;;;;;;;;;5031745;28;20209;-71
2022/12/29 01:36:55;;;;;;;2.10;1.57;;;;;;;;;;5032736;28;20194;-72
2022/12/29 01:39:20;;;;;;;2.30;1.77;;;;;;;;;;5032503;28;20189;-71
2022/12/29 01:41:45;;;;;;;2.30;1.77;;;;;;;;;;5032762;28;20201;-71
2022/12/29 01:44:29;;;;;;;2.23;1.67;;;;;;;;;;5032888;28;20178;-71
2022/12/29 01:46:54;;;;;;;2.80;2.07;;;;;;;;;;5031594;28;20198;-71
2022/12/29 01:49:22;;;;;;;2.80;1.60;;;;;;;;;;5024562;28;20247;-71
2022/12/29 01:51:52;;;;;;;3.20;2.10;;;;;;;;;;5031281;28;20206;-72
2022/12/29 01:54:21;;;;;;;2.23;2.03;;;;;;;;;;5032610;28;20660;-71
2022/12/29 01:56:47;;;;;;;2.25;1.70;;;;;;;;;;5028542;28;20208;-71
2022/12/29 01:59:15;;;;;;;2.03;1.67;;;;;;;;;;5030541;28;20634;-71
2022/12/29 02:01:40;;;;;;;1.73;1.40;;;;;;;;;;5032268;28;20170;-71
2022/12/29 02:04:06;;;;;;;1.80;1.67;;;;;;;;;;5032690;28;20197;-71
2022/12/29 02:06:35;;;;;;;3.20;1.80;;;;;;;;;;5030844;28;20198;-71
2022/12/29 02:09:00;;;;;;;3.00;1.80;;;;;;;;;;5024789;28;20198;-71
2022/12/29 02:11:26;;;;;;;1.90;1.67;;;;;;;;;;5031340;28;20667;-71
2022/12/29 02:13:51;;;;;;;2.97;1.50;;;;;;;;;;5032777;28;20171;-71
2022/12/29 02:16:35;;;;;;;3.63;1.30;;;;;;;;;;5031298;28;20209;-71
2022/12/29 02:19:16;;;;;;;1.33;1.00;;;;;;;;;;5032535;28;20257;-72
2022/12/29 02:21:47;;;;;;;3.03;1.07;;;;;;;;;;5032056;28;20254;-71
2022/12/29 02:24:13;;;;;;;1.90;1.07;;;;;;;;;;5031705;28;20193;-71
2022/12/29 02:26:44;;;;;;;1.83;1.00;;;;;;;;;;5025879;28;20203;-71
2022/12/29 02:29:20;;;;;;;3.50;0.90;;;;;;;;;;5031829;28;20574;-71
2022/12/29 02:31:54;;;;;;;2.70;0.60;;;;;;;;;;5029277;28;20505;-71
2022/12/29 02:34:30;;;;;;;1.53;0.77;;;;;;;;;;5031203;28;20197;-72
2022/12/29 02:37:04;;;;;;;1.42;0.80;;;;;;;;;;5031989;28;20201;-71
2022/12/29 02:39:32;;;;;;;2.23;0.70;;;;;;;;;;5031597;28;20578;-70
2022/12/29 02:42:00;;;;;;;4.97;0.60;;;;;;;;;;5030060;28;20295;-71
2022/12/29 02:44:36;;;;;;;2.27;0.63;;;;;;;;;;5027474;28;20232;-71
2022/12/29 02:47:13;;;;;;;1.43;0.60;;;;;;;;;;5031870;28;20205;-71
2022/12/29 02:49:40;;;;;;;3.50;0.60;;;;;;;;;;5030586;28;20551;-71
2022/12/29 02:52:07;;;;;;;2.80;0.57;;;;;;;;;;5029844;28;20228;-71
2022/12/29 02:54:41;;;;;;;0.50;0.47;;;;;;;;;;5031991;28;20206;-71
2022/12/29 02:57:11;;;;;;;1.00;0.50;;;;;;;;;;5027739;28;20229;-70
2022/12/29 02:59:36;;;;;;;1.63;0.90;;;;;;;;;;5024483;28;20633;-70
2022/12/29 03:02:19;;;;;;;2.67;0.93;;;;;;;;;;5029532;28;20189;-71
2022/12/29 03:04:57;;;;;;;0.70;0.60;;;;;;;;;;5032025;28;20179;-70
2022/12/29 03:07:28;;;;;;;3.00;0.57;;;;;;;;;;5030721;28;20667;-70
2022/12/29 03:10:00;;;;;;;1.80;0.50;;;;;;;;;;5029759;28;20178;-70
2022/12/29 03:18:05;;;;;;;2.57;0.60;;;;;;;;;;5030201;28;20228;-70
2022/12/29 03:20:38;;;;;;;2.63;0.70;;;;;;;;;;5026680;28;20747;-70
2022/12/29 03:23:05;;;;;;;2.50;0.60;;;;;;;;;;5024561;28;20623;-70
2022/12/29 03:25:32;;;;;;;1.90;0.50;;;;;;;;;;5031647;28;20186;-70
2022/12/29 03:28:00;;;;;;;1.30;0.40;;;;;;;;;;5030419;28;20209;-70
2022/12/29 03:30:27;;;;;;;2.27;0.60;;;;;;;;;;5031408;28;20190;-71
2022/12/29 03:32:58;;;;;;;2.27;0.50;;;;;;;;;;5029416;28;20256;-71
2022/12/29 03:35:25;;;;;;;5.03;0.60;;;;;;;;;;5027216;28;20187;-71
2022/12/29 03:38:05;;;;;;;1.17;0.50;;;;;;;;;;5026059;28;20205;-70
2022/12/29 03:40:31;;;;;;;5.43;1.20;;;;;;;;;;5031007;28;20186;-71
2022/12/29 03:42:57;;;;;;;2.67;0.97;;;;;;;;;;5028324;28;20182;-70
2022/12/29 03:45:22;;;;;;;0.80;0.60;;;;;;;;;;5030377;28;20186;-70
2022/12/29 03:47:47;;;;;;;7.50;1.43;;;;;;;;;;5029735;28;20210;-71
2022/12/29 03:50:13;;;;;;;3.03;1.10;;;;;;;;;;5029351;28;20182;-70
2022/12/29 03:52:38;;;;;;;3.43;0.80;;;;;;;;;;5024383;28;20577;-70
2022/12/29 03:55:03;;;;;;;2.17;1.10;;;;;;;;;;5027662;28;20261;-70
2022/12/29 03:57:29;;;;;;;2.17;1.10;;;;;;;;;;5030915;28;20225;-70
2022/12/29 03:59:54;;;;;;;3.40;1.10;;;;;;;;;;5028093;28;20379;-70
2022/12/29 04:02:19;;;;;;;1.60;1.00;;;;;;;;;;5027630;28;20257;-70
2022/12/29 04:04:44;;;;;;;2.93;1.93;;;;;;;;;;5029722;28;20171;-71
2022/12/29 04:07:09;;;;;;;4.03;1.57;;;;;;;;;;5032239;28;20213;-70
2022/12/29 04:09:34;;;;;;;4.23;1.03;;;;;;;;;;5032579;28;20178;-70
2022/12/29 04:12:00;;;;;;;3.67;1.10;;;;;;;;;;5028554;28;20179;-70
2022/12/29 04:14:25;;;;;;;5.20;1.47;;;;;;;;;;5030153;28;20733;-71
2022/12/29 04:16:50;;;;;;;3.27;0.93;;;;;;;;;;5028700;28;20288;-70
2022/12/29 04:19:15;;;;;;;1.53;0.80;;;;;;;;;;5034247;28;20181;-70
2022/12/29 04:21:40;;;;;;;3.90;0.90;;;;;;;;;;5031177;28;20179;-71
2022/12/29 04:24:06;;;;;;;1.93;0.90;;;;;;;;;;5030396;28;20667;-71
2022/12/29 04:26:31;;;;;;;6.60;1.10;;;;;;;;;;5034020;28;20305;-70
2022/12/29 04:28:57;;;;;;;3.00;1.30;;;;;;;;;;5029765;28;20271;-70
2022/12/29 04:31:22;;;;;;;5.77;1.70;;;;;;;;;;5029165;28;20559;-71
2022/12/29 04:33:47;;;;;;;6.33;0.90;;;;;;;;;;5029459;28;20182;-70
2022/12/29 04:36:12;;;;;;;5.17;1.23;;;;;;;;;;5035811;28;20240;-70
2022/12/29 04:38:37;;;;;;;4.07;0.90;;;;;;;;;;5033213;28;20178;-70
2022/12/29 04:41:03;;;;;;;5.47;1.50;;;;;;;;;;5029711;28;20553;-71
2022/12/29 04:43:28;;;;;;;3.30;0.80;;;;;;;;;;5027933;28;20220;-69
2022/12/29 04:45:54;;;;;;;4.57;1.00;;;;;;;;;;5033412;28;20577;-70
2022/12/29 04:48:19;;;;;;;9.50;3.07;;;;;;;;;;5023514;28;20197;-70
2022/12/29 04:50:47;;;;;;;5.20;1.40;;;;;;;;;;5030092;28;20200;-70
2022/12/29 04:53:12;;;;;;;13.73;3.27;;;;;;;;;;5031670;28;20171;-69
2022/12/29 04:55:37;;;;;;;3.87;1.70;;;;;;;;;;5029741;28;20504;-70
2022/12/29 04:58:03;;;;;;;8.57;1.83;;;;;;;;;;5028796;28;20170;-70
2022/12/29 05:00:28;;;;;;;6.50;0.83;;;;;;;;;;5025460;28;20542;-70
2022/12/29 05:02:53;;;;;;;3.63;1.50;;;;;;;;;;5033567;28;20186;-70
2022/12/29 05:05:18;;;;;;;4.73;1.23;;;;;;;;;;5031323;28;20182;-70
2022/12/29 05:07:44;;;;;;;5.87;1.10;;;;;;;;;;5030408;28;20201;-70
2022/12/29 05:10:09;;;;;;;5.70;1.40;;;;;;;;;;5032576;28;20224;-71
2022/12/29 05:12:35;;;;;;;9.10;1.50;;;;;;;;;;5028351;28;20215;-72
2022/12/29 05:15:02;;;;;;;8.17;1.70;;;;;;;;;;5029199;28;20182;-70
2022/12/29 05:17:27;;;;;;;5.77;1.47;;;;;;;;;;5031750;28;20217;-71
2022/12/29 05:19:52;;;;;;;6.73;1.60;;;;;;;;;;5031177;28;20185;-71
2022/12/29 05:22:18;;;;;;;7.20;1.10;;;;;;;;;;5028907;28;20174;-71
2022/12/29 05:24:43;;;;;;;6.17;1.40;;;;;;;;;;5028984;28;20174;-69
2022/12/29 05:27:08;;;;;;;11.00;1.93;;;;;;;;;;5031198;28;20585;-70
2022/12/29 05:29:33;;;;;;;6.43;1.20;;;;;;;;;;5030740;28;20687;-70
2022/12/29 05:31:59;;;;;;;6.80;1.63;;;;;;;;;;5032891;28;20179;-70
2022/12/29 05:34:24;;;;;;;5.87;1.90;;;;;;;;;;5031437;28;20325;-70
2022/12/29 05:36:49;;;;;;;6.57;1.63;;;;;;;;;;5033536;28;20656;-70
2022/12/29 05:39:14;;;;;;;6.07;1.50;;;;;;;;;;5033571;28;20178;-71
2022/12/29 05:41:40;;;;;;;7.63;1.40;;;;;;;;;;5032742;28;20166;-71
2022/12/29 05:44:05;;;;;;;5.87;1.87;;;;;;;;;;5031608;28;20174;-71
2022/12/29 05:46:30;;;;;;;9.07;1.67;;;;;;;;;;5032887;28;20202;-70
2022/12/29 05:48:55;;;;;;;9.57;1.37;;;;;;;;;;5032009;28;20201;-70
2022/12/29 05:51:20;;;;;;;10.43;1.90;;;;;;;;;;5032491;28;20170;-71
2022/12/29 05:53:46;;;;;;;13.40;3.50;;;;;;;;;;5030758;28;20171;-71
2022/12/29 05:56:11;;;;;;;9.13;1.73;;;;;;;;;;5031810;28;20691;-71
2022/12/29 05:58:36;;;;;;;16.53;3.13;;;;;;;;;;5033582;28;20656;-71
2022/12/29 06:01:01;;;;;;;8.53;1.37;;;;;;;;;;5031458;28;20257;-70
2022/12/29 06:03:26;;;;;;;9.13;1.53;;;;;;;;;;5032929;28;20175;-71
2022/12/29 06:05:52;;;;;;;7.13;1.60;;;;;;;;;;5033301;28;20566;-71
2022/12/29 06:08:17;;;;;;;4.53;1.27;;;;;;;;;;5032607;28;20683;-70
2022/12/29 06:10:42;;;;;;;5.73;1.63;;;;;;;;;;5031974;28;20179;-71
2022/12/29 06:13:07;;;;;;;11.27;2.00;;;;;;;;;;5032142;28;20178;-70
2022/12/29 06:18:03;;;;;;;8.70;2.13;;;;;;;;;;5012055;28;20281;-78
2022/12/29 06:20:28;;;;;;;9.80;1.67;;;;;;;;;;5012094;28;20179;-78
2022/12/29 06:22:53;;;;;;;10.53;2.40;;;;;;;;;;5011792;28;20179;-78
2022/12/29 06:25:18;;;;;;;10.97;1.13;;;;;;;;;;5012304;28;20175;-79
2022/12/29 06:27:43;;;;;;;5.47;1.23;;;;;;;;;;4991725;28;20262;-78
2022/12/29 06:30:09;;;;;;;4.07;1.30;;;;;;;;;;4992679;28;20175;-78
2022/12/29 06:32:35;;;;;;;6.67;2.00;;;;;;;;;;4992123;28;20657;-78
2022/12/29 06:35:00;;;;;;;6.70;1.43;;;;;;;;;;4993746;28;20176;-78
2022/12/29 06:37:25;;;;;;;7.03;1.37;;;;;;;;;;4990844;28;20295;-77
2022/12/29 06:39:51;;;;;;;8.30;1.20;;;;;;;;;;4992365;28;20195;-78
2022/12/29 06:42:16;;;;;;;2.93;1.10;;;;;;;;;;4992475;28;20712;-77
2022/12/29 06:44:41;;;;;;;7.20;1.30;;;;;;;;;;4992246;28;20176;-78
2022/12/29 06:47:06;;;;;;;5.70;1.37;;;;;;;;;;4992652;28;20191;-78
2022/12/29 06:49:31;;;;;;;8.13;1.30;;;;;;;;;;4985584;28;20180;-78
2022/12/29 06:51:59;;;;;;;10.33;2.00;;;;;;;;;;4991273;28;20664;-79
2022/12/29 06:54:24;;;;;;;8.33;1.77;;;;;;;;;;4991435;28;21109;-79
2022/12/29 06:56:49;;;;;;;10.90;3.93;;;;;;;;;;4991450;28;20686;-78
2022/12/29 06:59:15;;;;;;;7.50;2.20;;;;;;;;;;4993074;28;20199;-79
2022/12/29 07:01:40;;;;;;;5.33;1.03;;;;;;;;;;4983073;28;20203;-78
2022/12/29 07:04:05;;;;;;;6.93;1.27;;;;;;;;;;4991831;28;20180;-78
2022/12/29 07:06:30;;;;;;;4.70;1.40;;;;;;;;;;4991657;28;20227;-78
2022/12/29 07:08:57;;;;;;;10.57;2.53;;;;;;;;;;4991350;28;20192;-78
2022/12/29 07:11:22;;;;;;;8.67;1.90;;;;;;;;;;4990767;28;20233;-78
2022/12/29 07:13:47;;;;;;;4.90;1.40;;;;;;;;;;4992593;28;20266;-78
2022/12/29 07:16:13;;;;;;;12.07;2.37;;;;;;;;;;4999231;28;20215;-78
2022/12/29 07:18:38;;;;;;;6.57;1.17;;;;;;;;;;5010418;28;20176;-78
2022/12/29 07:21:03;;;;;;;8.80;1.40;;;;;;;;;;4991292;28;20238;-79
2022/12/29 07:23:29;;;;;;;3.43;1.40;;;;;;;;;;4991391;28;20234;-79
2022/12/29 07:26:00;;;;;;;7.77;1.80;;;;;;;;;;4993611;28;20642;-78
2022/12/29 07:28:25;;;;;;;8.13;1.60;;;;;;;;;;4996103;28;20279;-79
2022/12/29 07:30:51;;;;;;;13.60;2.43;;;;;;;;;;4990555;28;20210;-80
2022/12/29 07:33:16;;;;;;;6.13;2.00;;;;;;;;;;4990143;28;20271;-79
2022/12/29 07:35:41;;;;;;;4.00;1.57;;;;;;;;;;4991335;28;20543;-79
2022/12/29 07:38:06;;;;;;;5.93;1.70;;;;;;;;;;4989960;28;20562;-79
2022/12/29 07:40:31;;;;;;;15.27;1.90;;;;;;;;;;4989589;28;20192;-79
2022/12/29 07:42:57;;;;;;;5.67;1.60;;;;;;;;;;4991565;28;20733;-79
2022/12/29 07:45:22;;;;;;;6.87;1.67;;;;;;;;;;4992522;28;20186;-79
2022/12/29 07:47:48;;;;;;;11.63;2.17;;;;;;;;;;4989906;28;20262;-79
2022/12/29 07:50:13;;;;;;;9.93;2.10;;;;;;;;;;4990881;28;20270;-79
2022/12/29 07:52:39;;;;;;;8.27;1.63;;;;;;;;;;4989101;28;20262;-77
2022/12/29 07:55:04;;;;;;;7.23;1.60;;;;;;;;;;4992351;28;20179;-79
2022/12/29 07:57:29;;;;;;;9.50;1.73;;;;;;;;;;4989429;28;20227;-79
2022/12/29 07:59:54;;;;;;;6.57;1.70;;;;;;;;;;4992209;28;20182;-79
2022/12/29 08:02:20;;;;;;;7.60;2.07;;;;;;;;;;4989740;28;20184;-78
2022/12/29 08:04:45;;;;;;;13.33;2.30;;;;;;;;;;5016829;28;20225;-79
2022/12/29 08:07:10;;;;;;;6.77;1.90;;;;;;;;;;4989835;28;20202;-79
2022/12/29 08:09:35;;;;;;;9.77;2.20;;;;;;;;;;4992048;28;20175;-79
2022/12/29 08:12:00;;;;;;;7.43;1.40;;;;;;;;;;5011215;28;20629;-79
2022/12/29 08:14:26;;;;;;;5.57;1.40;;;;;;;;;;4992053;28;20200;-78
2022/12/29 08:16:51;;;;;;;5.70;1.43;;;;;;;;;;5011566;28;20231;-78
2022/12/29 08:19:16;;;;;;;7.30;1.90;;;;;;;;;;4993086;28;20187;-78
2022/12/29 08:21:41;;;;;;;7.70;1.57;;;;;;;;;;4991436;28;20187;-77
2022/12/29 08:24:08;;;;;;;7.13;2.07;;;;;;;;;;4992278;28;20175;-77
2022/12/29 08:26:33;;;;;;;3.67;1.20;;;;;;;;;;4988567;28;20215;-78
2022/12/29 08:28:58;;;;;;;5.30;1.83;;;;;;;;;;4995234;28;20199;-78
2022/12/29 08:31:24;;;;;;;12.83;2.30;;;;;;;;;;4991034;28;20533;-79
2022/12/29 08:33:49;;;;;;;9.20;1.90;;;;;;;;;;4991046;28;20222;-79
2022/12/29 08:36:14;;;;;;;8.10;1.40;;;;;;;;;;4991608;28;20519;-78
2022/12/29 08:38:39;;;;;;;4.40;1.37;;;;;;;;;;4990798;28;20649;-79
2022/12/29 08:41:05;;;;;;;8.77;2.17;;;;;;;;;;4991162;28;20180;-78
2022/12/29 08:43:30;;;;;;;8.47;1.73;;;;;;;;;;4990925;28;20183;-78
2022/12/29 08:45:57;;;;;;;3.77;1.57;;;;;;;;;;4992039;28;20205;-78
2022/12/29 08:48:22;;;;;;;11.57;2.03;;;;;;;;;;4998557;28;20481;-78
2022/12/29 08:50:47;;;;;;;6.67;1.53;;;;;;;;;;4990842;28;20721;-78
2022/12/29 08:53:13;;;;;;;9.47;2.00;;;;;;;;;;4990615;28;20176;-79
2022/12/29 08:55:38;;;;;;;6.17;1.30;;;;;;;;;;4992265;28;20597;-78
2022/12/29 08:58:03;;;;;;;10.47;1.70;;;;;;;;;;4991668;28;20262;-78
2022/12/29 09:00:28;;;;;;;9.43;1.63;;;;;;;;;;4989323;28;20298;-78
2022/12/29 09:02:54;;;;;;;6.83;3.00;;;;;;;;;;4988653;28;20249;-79
2022/12/29 09:05:19;;;;;;;6.37;1.77;;;;;;;;;;4987959;28;20230;-79
2022/12/29 09:07:44;;;;;;;6.67;1.27;;;;;;;;;;4991838;28;20594;-78
2022/12/29 09:10:10;;;;;;;8.90;1.70;;;;;;;;;;4994820;28;20275;-79
2022/12/29 09:12:35;;;;;;;6.97;1.50;;;;;;;;;;4993613;28;20175;-79
2022/12/29 09:15:00;;;;;;;7.80;1.97;;;;;;;;;;4995125;28;20180;-79
2022/12/29 09:17:41;;;;;;;6.93;1.83;;;;;;;;;;4996293;28;20298;-79
2022/12/29 09:20:08;;;;;;;5.83;1.83;;;;;;;;;;4995672;28;20176;-80
2022/12/29 09:22:33;;;;;;;7.23;1.63;;;;;;;;;;4984874;28;20598;-79
2022/12/29 09:24:59;;;;;;;4.93;1.40;;;;;;;;;;4995673;28;20198;-79
2022/12/29 09:27:24;;;;;;;6.83;2.00;;;;;;;;;;4993860;28;20215;-80
2022/12/29 09:29:49;;;;;;;6.83;1.57;;;;;;;;;;4995132;28;20642;-78
2022/12/29 09:32:14;;;;;;;5.63;1.43;;;;;;;;;;4992326;28;20668;-79
2022/12/29 09:34:40;;;;;;;6.27;2.00;;;;;;;;;;4993713;28;20251;-79
2022/12/29 09:37:05;;;;;;;4.30;1.57;;;;;;;;;;4986641;28;20196;-79
2022/12/29 09:39:30;;;;;;;7.53;1.50;;;;;;;;;;4987876;28;20176;-78
2022/12/29 09:42:07;;;;;;;8.03;1.60;;;;;;;;;;4989648;28;20649;-78
2022/12/29 09:44:33;;;;;;;8.43;1.53;;;;;;;;;;4991956;28;20172;-78
2022/12/29 09:46:58;;;;;;;4.57;1.50;;;;;;;;;;4994053;28;20195;-77
2022/12/29 09:49:43;;;;;;;8.40;1.50;;;;;;;;;;4994401;28;20207;-77
2022/12/29 09:52:14;;;;;;;5.17;1.80;;;;;;;;;;4989689;28;20304;-78
2022/12/29 09:54:49;;;;;;;6.27;1.73;;;;;;;;;;4993404;28;20214;-78
2022/12/29 09:57:25;;;;;;;7.67;1.63;;;;;;;;;;4984804;28;20203;-78
2022/12/29 09:59:52;;;;;;;5.10;1.30;;;;;;;;;;4991920;28;20179;-78
2022/12/29 10:02:26;;;;;;;5.60;1.93;;;;;;;;;;4992159;28;20180;-78
2022/12/29 10:04:52;;;;;;;6.73;1.90;;;;;;;;;;4994353;28;20213;-77
2022/12/29 10:07:23;;;;;;;5.00;1.83;;;;;;;;;;4997133;28;20732;-77
2022/12/29 10:09:55;;;;;;;4.93;1.17;;;;;;;;;;4994912;28;20221;-78
2022/12/29 10:12:50;;;;;;;7.73;1.37;;;;;;;;;;4992272;28;20713;-78
2022/12/29 10:15:26;;;;;;;2.90;1.17;;;;;;;;;;4981855;28;20183;-78
2022/12/29 10:18:01;;;;;;;5.03;1.17;;;;;;;;;;4991115;28;20711;-78
2022/12/29 10:20:35;;;;;;;12.77;1.20;;;;;;;;;;5010724;28;20203;-79
2022/12/29 10:23:08;;;;;;;8.37;1.47;;;;;;;;;;5009643;28;20217;-76
2022/12/29 10:25:36;;;;;;;5.60;1.67;;;;;;;;;;4991558;28;20279;-78
2022/12/29 10:28:04;;;;;;;7.13;1.53;;;;;;;;;;4992431;28;20215;-78
2022/12/29 10:30:30;;;;;;;8.67;2.17;;;;;;;;;;4987659;28;20717;-78
2022/12/29 10:32:57;;;;;;;7.80;2.40;;;;;;;;;;4991417;28;20270;-78
2022/12/29 10:35:29;;;;;;;17.30;3.33;;;;;;;;;;4993491;28;20195;-78
2022/12/29 10:37:57;;;;;;;9.73;2.30;;;;;;;;;;4989152;28;20182;-77
2022/12/29 10:40:29;;;;;;;9.23;2.57;;;;;;;;;;4993603;28;20203;-78
2022/12/29 10:42:56;;;;;;;9.20;3.43;;;;;;;;;;4993415;28;20270;-77
2022/12/29 10:45:23;;;;;;;10.83;2.67;;;;;;;;;;4992843;28;20539;-78
2022/12/29 10:47:53;;;;;;;13.77;3.77;;;;;;;;;;4987270;28;20686;-77
2022/12/29 10:50:19;;;;;;;10.37;2.57;;;;;;;;;;4994133;28;20610;-77
2022/12/29 10:52:44;;;;;;;10.20;2.63;;;;;;;;;;4989859;28;21712;-78
2022/12/29 10:55:18;;;;;;;7.20;2.67;;;;;;;;;;4991712;28;20585;-77
2022/12/29 10:57:45;;;;;;;12.17;2.90;;;;;;;;;;4987708;28;20198;-77
2022/12/29 11:00:17;;;;;;;13.27;3.27;;;;;;;;;;4993800;28;20195;-77
2022/12/29 11:03:01;;;;;;;7.37;2.23;;;;;;;;;;4987500;28;20654;-77
2022/12/29 11:05:29;;;;;;;6.53;2.20;;;;;;;;;;4988465;28;20187;-77
2022/12/29 11:08:00;;;;;;;11.57;3.33;;;;;;;;;;4995423;28;20290;-77
2022/12/29 11:10:28;;;;;;;12.63;3.73;;;;;;;;;;4994495;28;20284;-77
2022/12/29 11:12:55;;;;;;;9.53;3.37;;;;;;;;;;5010882;28;20879;-78
2022/12/29 11:15:20;;;;;;;10.17;2.40;;;;;;;;;;4990641;28;20180;-78
2022/12/29 11:17:47;;;;;;;8.13;2.90;;;;;;;;;;4992163;28;20221;-77
2022/12/29 11:20:25;;;;;;;9.67;2.87;;;;;;;;;;4992786;28;20176;-77
2022/12/29 11:22:52;;;;;;;11.13;2.60;;;;;;;;;;4990051;28;20641;-77
2022/12/29 11:25:17;;;;;;;12.27;4.17;;;;;;;;;;4991653;28;20194;-77
2022/12/29 11:27:54;;;;;;;12.87;3.23;;;;;;;;;;4991831;28;20207;-79
2022/12/29 11:30:23;;;;;;;11.67;2.80;;;;;;;;;;4984945;28;20189;-78
2022/12/29 11:32:52;;;;;;;9.17;2.90;;;;;;;;;;4984052;28;20183;-78
2022/12/29 11:35:30;;;;;;;15.80;3.77;;;;;;;;;;4987681;28;20179;-77
2022/12/29 11:37:57;;;;;;;10.57;2.80;;;;;;;;;;4988374;28;20188;-78
2022/12/29 11:40:22;;;;;;;12.30;3.07;;;;;;;;;;4991421;28;20650;-78
2022/12/29 11:42:52;;;;;;;10.10;3.17;;;;;;;;;;4989468;28;20183;-78
2022/12/29 11:45:20;;;;;;;15.17;3.80;;;;;;;;;;4988253;28;20188;-78
2022/12/29 11:47:47;;;;;;;10.17;3.63;;;;;;;;;;4991546;28;20199;-79
2022/12/29 11:50:21;;;;;;;12.10;4.87;;;;;;;;;;4986509;28;20215;-78
2022/12/29 11:52:47;;;;;;;7.93;3.40;;;;;;;;;;4990029;28;20179;-78
2022/12/29 11:55:18;;;;;;;22.60;3.70;;;;;;;;;;4991386;28;20179;-78
2022/12/29 11:57:43;;;;;;;13.93;2.77;;;;;;;;;;4984265;28;20230;-77
2022/12/29 12:00:16;;;;;;;15.10;4.10;;;;;;;;;;4989365;28;20218;-77
2022/12/29 12:02:41;;;;;;;12.50;3.10;;;;;;;;;;4991766;28;20254;-79
2022/12/29 12:05:20;;;;;;;18.20;3.43;;;;;;;;;;4987035;28;20274;-78
2022/12/29 12:07:56;;;;;;;13.57;2.80;;;;;;;;;;4991486;28;20277;-78
2022/12/29 12:10:29;;;;;;;11.77;2.30;;;;;;;;;;4988713;28;20226;-78
2022/12/29 12:13:07;;;;;;;11.75;2.70;;;;;;;;;;4991154;28;20222;-77
2022/12/29 12:15:39;;;;;;;13.98;3.05;;;;;;;;;;4997874;28;20179;-77
2022/12/29 12:18:30;;;;;;;14.57;2.60;;;;;;;;;;5019820;22;20268;-70
2022/12/29 12:21:12;;;;;;;15.30;4.93;;;;;;;;;;5006069;28;20199;-71
2022/12/29 12:23:49;;;;;;;9.68;2.63;;;;;;;;;;5009342;28;20298;-71
2022/12/29 12:26:20;;;;;;;16.20;3.30;;;;;;;;;;5008996;28;20214;-70
2022/12/29 12:28:52;;;;;;;8.27;2.22;;;;;;;;;;4989687;28;20204;-70
2022/12/29 12:31:40;;;;;;;9.87;2.57;;;;;;;;;;4989404;28;20207;-71
2022/12/29 12:34:09;;;;;;;10.83;2.40;;;;;;;;;;4994793;28;20175;-70
2022/12/29 12:36:53;;;;;;;9.90;3.00;;;;;;;;;;4991081;28;20231;-71
2022/12/29 12:39:26;;;;;;;16.67;3.23;;;;;;;;;;4991399;28;20523;-71
2022/12/29 12:41:59;;;;;;;13.87;3.27;;;;;;;;;;4998866;28;20179;-74
2022/12/29 12:44:31;;;;;;;10.30;2.97;;;;;;;;;;4996816;28;20676;-71
2022/12/29 12:47:19;;;;;;;13.33;2.70;;;;;;;;;;4996646;28;20801;-71
2022/12/29 12:50:04;;;;;;;10.27;2.60;;;;;;;;;;4992131;28;20183;-71
2022/12/29 12:52:44;;;;;;;9.77;1.98;;;;;;;;;;4994151;28;20203;-71
2022/12/29 12:55:22;;;;;;;10.57;2.97;;;;;;;;;;4990000;28;20192;-71
2022/12/29 12:57:57;;;;;;;9.88;2.70;;;;;;;;;;4995567;28;20704;-70
2022/12/29 13:00:23;;;;;;;11.47;3.07;;;;;;;;;;4993649;28;20529;-71
2022/12/29 13:03:03;;;;;;;11.27;3.63;;;;;;;;;;4993817;28;20222;-71
2022/12/29 13:05:38;;;;;;;19.38;3.13;;;;;;;;;;4988822;28;20271;-71
2022/12/29 13:08:23;;;;;;;13.50;4.07;;;;;;;;;;4998161;28;20702;-71
2022/12/29 13:11:07;;;;;;;10.20;2.33;;;;;;;;;;4981307;28;20191;-70
2022/12/29 13:13:35;;;;;;;4.83;2.87;;;;;;;;;;4999611;28;20179;-71
2022/12/29 13:16:13;;;;;;;10.27;2.97;;;;;;;;;;4996495;28;20259;-70
2022/12/29 13:18:56;;;;;;;10.80;2.63;;;;;;;;;;4994847;28;20195;-71
2022/12/29 13:21:37;;;;;;;13.20;3.37;;;;;;;;;;4991737;28;20191;-71
2022/12/29 13:24:21;;;;;;;12.00;2.43;;;;;;;;;;4995566;28;20179;-70
2022/12/29 13:26:46;;;;;;;14.60;3.73;;;;;;;;;;4986268;28;20597;-72
2022/12/29 13:29:18;;;;;;;9.40;3.40;;;;;;;;;;4993965;28;20203;-71
2022/12/29 13:31:51;;;;;;;11.77;3.70;;;;;;;;;;4984980;28;20199;-71
2022/12/29 13:34:35;;;;;;;10.33;2.97;;;;;;;;;;4994833;28;20258;-71
2022/12/29 13:37:07;;;;;;;11.50;4.13;;;;;;;;;;4989154;28;20198;-72
2022/12/29 13:39:42;;;;;;;8.63;2.70;;;;;;;;;;4993686;28;20266;-71
2022/12/29 13:42:07;;;;;;;16.53;2.30;;;;;;;;;;4994095;28;20194;-71
2022/12/29 13:44:38;;;;;;;8.40;2.10;;;;;;;;;;4994580;28;20171;-71
2022/12/29 13:47:22;;;;;;;3.60;1.37;;;;;;;;;;4994514;28;20231;-71
2022/12/29 13:49:47;;;;;;;6.67;1.30;;;;;;;;;;4995990;28;20194;-72
2022/12/29 13:52:21;;;;;;;3.50;1.30;;;;;;;;;;4986601;28;20247;-71
2022/12/29 13:54:46;;;;;;;2.90;1.20;;;;;;;;;;4987204;28;20168;-72
2022/12/29 13:57:11;;;;;;;7.87;1.17;;;;;;;;;;4994165;28;20194;-71
2022/12/29 13:59:51;;;;;;;2.87;0.83;;;;;;;;;;4993184;28;20187;-72
2022/12/29 14:02:20;;;;;;;4.27;0.90;;;;;;;;;;4989890;28;20274;-72
2022/12/29 14:04:55;;;;;;;4.73;1.10;;;;;;;;;;4991507;28;20263;-72
2022/12/29 14:07:21;;;;;;;3.70;0.97;;;;;;;;;;4993414;28;20199;-71
2022/12/29 14:09:53;;;;;;;3.00;0.80;;;;;;;;;;4994081;28;20551;-72
2022/12/29 14:12:24;;;;;;;6.07;1.00;;;;;;;;;;4993575;28;20260;-71
2022/12/29 14:14:49;;;;;;;1.70;0.93;;;;;;;;;;4992765;28;20544;-71
2022/12/29 14:17:18;;;;;;;2.20;0.90;;;;;;;;;;4998102;28;20283;-72
2022/12/29 14:19:44;;;;;;;15.43;1.57;;;;;;;;;;4994251;28;20266;-71
2022/12/29 14:22:10;;;;;;;6.20;1.30;;;;;;;;;;4992360;28;20580;-71
2022/12/29 14:24:43;;;;;;;4.83;1.40;;;;;;;;;;4993633;28;20175;-71
2022/12/29 14:27:08;;;;;;;4.87;1.50;;;;;;;;;;4989083;28;20192;-72
2022/12/29 14:29:42;;;;;;;4.03;1.13;;;;;;;;;;4993035;28;20219;-72
2022/12/29 14:32:20;;;;;;;4.37;1.30;;;;;;;;;;4988720;28;20555;-71
2022/12/29 14:34:45;;;;;;;7.40;1.80;;;;;;;;;;4994364;28;20195;-71
2022/12/29 14:37:27;;;;;;;5.30;1.50;;;;;;;;;;4993371;28;20723;-71
2022/12/29 14:40:04;;;;;;;4.57;1.37;;;;;;;;;;4987993;28;20201;-72
2022/12/29 14:42:30;;;;;;;10.43;3.60;;;;;;;;;;4990142;28;20179;-71
2022/12/29 14:45:05;;;;;;;6.03;1.87;;;;;;;;;;4993594;28;20673;-71
2022/12/29 14:47:30;;;;;;;4.73;1.63;;;;;;;;;;4991597;28;20203;-71
2022/12/29 14:49:57;;;;;;;7.70;2.57;;;;;;;;;;4995007;28;20221;-71
2022/12/29 14:52:27;;;;;;;8.60;1.80;;;;;;;;;;4990089;28;21335;-71
2022/12/29 14:54:54;;;;;;;7.83;1.73;;;;;;;;;;4993639;28;20176;-71
2022/12/29 14:57:27;;;;;;;3.97;1.30;;;;;;;;;;4993419;28;20196;-71
2022/12/29 14:59:53;;;;;;;8.10;1.70;;;;;;;;;;4992187;28;20168;-72
2022/12/29 15:02:21;;;;;;;8.70;1.53;;;;;;;;;;4988965;28;20238;-71
2022/12/29 15:04:46;;;;;;;7.60;2.07;;;;;;;;;;4993282;28;20175;-71
2022/12/29 15:07:12;;;;;;;9.50;2.00;;;;;;;;;;4992050;28;20201;-71
2022/12/29 15:09:49;;;;;;;8.07;1.87;;;;;;;;;;4992943;28;20207;-72
2022/12/29 15:12:33;;;;;;;5.00;1.40;;;;;;;;;;4991527;28;20194;-71
2022/12/29 15:14:58;;;;;;;7.93;1.60;;;;;;;;;;4989307;28;20179;-74
2022/12/29 15:17:28;;;;;;;9.10;2.10;;;;;;;;;;4994927;28;20219;-71
2022/12/29 15:19:57;;;;;;;10.03;2.07;;;;;;;;;;4992925;28;20171;-72
2022/12/29 15:22:23;;;;;;;7.17;1.67;;;;;;;;;;4991737;28;20194;-71